52,017 characters on server EU S18

Name Gender Race Level Class group Power rating Account Last update
!@×@+ Male Human 1 Fighter/Warrior/Rogue 219 101786784 2019-10-28
!Owni Male Nightborne 34 Fighter/Warrior/Rogue 1127 101709179 2019-10-28
!jos! Female Nightborne 6 Fighter/Warrior/Rogue 251 101747032 2019-10-28
#000# Male Nightborne 18 Mage/Wizard/Dark Sage 493 100246328 2019-10-28
#842DCEMcye Male Human 1 Paladin/Archer/Cleric 216 101729190 2019-10-28
#AYCM Male Dwarf 1 Paladin/Archer/Cleric 216 101731690 2019-10-28
#Ala# Female Dwarf 6 Mage/Wizard/Dark Sage 253 101869233 2019-10-29
#Aryus# Female Human 3 Paladin/Archer/Cleric 267 101763849 2019-10-28
#BOLT# Male Human 9 Fighter/Warrior/Rogue 276 101732334 2019-10-28
#Berilac# Male Nightborne 4 Paladin/Archer/Cleric 240 100012841 2019-10-28
#BlackBeard# Male Orc 21 Paladin/Archer/Cleric 579 100438086 2019-10-28
#BoRJoM1 Male Orc 29 Paladin/Archer/Cleric 981 101826425 2019-10-28
#Cesare Male Human 8 Fighter/Warrior/Rogue 256 101790834 2019-10-28
#DARKKABUS# Male Human 70 Paladin/Archer/Cleric 8725 101618485 2019-10-28
#DIE# Female Nightborne 18 Paladin/Archer/Cleric 488 100203929 2019-10-28
#Dok# Female Nightborne 20 Fighter/Warrior/Rogue 475 100563029 2019-10-28
#Haus Male Elf 22 Fighter/Warrior/Rogue 512 101722820 2019-10-28
#Hause Male Elf 8 Fighter/Warrior/Rogue 293 101722820 2019-10-28
#Hausi Male Elf 9 Mage/Wizard/Dark Sage 279 101722820 2019-10-28
#HellboY# Male Dwarf 6 Paladin/Archer/Cleric 281 101775323 2019-10-28
#Hexepace Male Nightborne 32 Paladin/Archer/Cleric 1181 101507650 2019-10-28
#Hymenalos Male Elf 7 Paladin/Archer/Cleric 253 101775510 2019-10-28
#Jolly Female Nightborne 70 Mage/Wizard/Dark Sage 7644 101621334 2019-10-28
#Kaneshiro Male Nightborne 70 Mage/Wizard/Dark Sage 12322 101772850 2019-10-28
#Lugia#1 Male Nightborne 23 Fighter/Warrior/Rogue 656 101746647 2019-10-28
#Neemio Female Nightborne 12 Mage/Wizard/Dark Sage 776 101376586 2019-10-28
#Poseidon Female Elf 6 Mage/Wizard/Dark Sage 250 101718907 2019-10-28
#SILVER# Male Human 39 Paladin/Archer/Cleric 1397 101732334 2019-10-28
#Schu# Male Nightborne 61 Paladin/Archer/Cleric 4932 100029647 2019-10-28
#Scroop# Female Nightborne 6 Paladin/Archer/Cleric 258 100445122 2019-10-28
#Who Male Orc 28 Fighter/Warrior/Rogue 782 101724446 2019-10-28
#Yannis Female Orc 14 Fighter/Warrior/Rogue 446 101741496 2019-10-28
#Z@zig@lk@# Female Orc 67 Mage/Wizard/Dark Sage 3866 101671859 2019-10-28
#blyatbraeker Male Dwarf 13 Paladin/Archer/Cleric 365 101746317 2019-10-28
#dnme Female Human 1 Fighter/Warrior/Rogue 249 101822396 2019-10-28
#sorry Male Human 4 Mage/Wizard/Dark Sage 242 101759619 2019-10-28
#×××# Male Nightborne 64 Mage/Wizard/Dark Sage 3751 100246328 2019-10-28
&Candy& Female Orc 70 Fighter/Warrior/Rogue 8233 101712881 2019-10-28
&Devil& Male Nightborne 34 Mage/Wizard/Dark Sage 1265 100941784 2019-10-28
(#_&4@&@54342 Male Dwarf 20 Mage/Wizard/Dark Sage 447 101784347 2019-10-28
(-)KILLER-) Male Nightborne 7 Fighter/Warrior/Rogue 254 101785986 2019-10-28
(.T_T.) Female Orc 70 Mage/Wizard/Dark Sage 7755 101772831 2019-10-28
(0!0) Female Orc 70 Paladin/Archer/Cleric 9081 101712881 2019-10-28
(<VIP>) Female Nightborne 6 Paladin/Archer/Cleric 248 101602078 2019-10-28
(=)KILLER-)1 Male Elf 29 Mage/Wizard/Dark Sage 784 101785986 2019-10-28
(>.<) Male Nightborne 70 Mage/Wizard/Dark Sage 10760 100456725 2019-10-28
(Acnologia) Male Nightborne 6 Mage/Wizard/Dark Sage 254 101727827 2019-10-28
(Caity) Female Nightborne 1 Mage/Wizard/Dark Sage 223 101638639 2019-10-28
(Dok) Female Elf 10 Paladin/Archer/Cleric 307 100563029 2019-10-28
(EROS) Female Nightborne 21 Mage/Wizard/Dark Sage 465 101739497 2019-10-28
(Elmagico) Male Elf 25 Mage/Wizard/Dark Sage 551 101777568 2019-10-28
(Ephesus) Female Human 40 Paladin/Archer/Cleric 1520 101784050 2019-10-28
(Hunter) Male Nightborne 6 Mage/Wizard/Dark Sage 250 100537196 2019-10-28
(Jacky) Male Orc 70 Fighter/Warrior/Rogue 10403 101712881 2019-10-28
(L2P))EmreX Female Human 39 Paladin/Archer/Cleric 1703 101704935 2019-10-28
(L2P)EmreX Female Nightborne 3 Fighter/Warrior/Rogue 239 101704935 2019-10-28
(Maef) Female Nightborne 7 Fighter/Warrior/Rogue 255 101746476 2019-10-28
(NIGHTWISH) Female Elf 17 Mage/Wizard/Dark Sage 438 101758379 2019-10-28
(NlGHTWlSH) Female Elf 31 Mage/Wizard/Dark Sage 754 101758379 2019-10-28
(OnlyOne) Male Nightborne 18 Fighter/Warrior/Rogue 534 100537196 2019-10-28
(PiffkO) Female Orc 70 Mage/Wizard/Dark Sage 7969 100534704 2019-10-28
(Success) Male Dwarf 29 Fighter/Warrior/Rogue 751 101670548 2019-10-28
(WeeD) Male Nightborne 70 Paladin/Archer/Cleric 5517 101727608 2019-10-28
(Wizard) Male Nightborne 10 Mage/Wizard/Dark Sage 283 101233156 2019-10-28
(_Dok_) Female Orc 15 Paladin/Archer/Cleric 471 101747797 2019-10-28
(ОСТАП) Male Elf 6 Paladin/Archer/Cleric 248 101678158 2019-10-28
))))) Female Elf 70 Fighter/Warrior/Rogue 5129 101745015 2019-10-28
))Siam(( Female Nightborne 7 Paladin/Archer/Cleric 286 101754325 2019-10-28
***kral*** Male Elf 7 Fighter/Warrior/Rogue 255 101790340 2019-10-28
**Amok** Male Dwarf 1 Fighter/Warrior/Rogue 237 100048513 2019-10-28
**EsEsTR** Male Human 12 Fighter/Warrior/Rogue 355 101769443 2019-10-28
**Kinetics** Female Orc 6 Mage/Wizard/Dark Sage 248 100145357 2019-10-28
**Rhea** Female Orc 49 Fighter/Warrior/Rogue 2750 101880245 2019-10-29
**krauch** Male Orc 70 Paladin/Archer/Cleric 6170 100939170 2019-10-28
*-*ViP*-* Male Elf 11 Mage/Wizard/Dark Sage 312 101722336 2019-10-28
*=B@bySh@rk=* Female Orc 11 Mage/Wizard/Dark Sage 318 101445790 2019-10-28
*Ace* Male Orc 70 Paladin/Archer/Cleric 8114 101746151 2019-10-28
*Adar* Male Elf 6 Mage/Wizard/Dark Sage 253 101773113 2019-10-28
*Anley* Female Orc 32 Fighter/Warrior/Rogue 926 101704361 2019-10-28
*Ares* Male Orc 6 Fighter/Warrior/Rogue 266 101726127 2019-10-28
*Aryus* Female Elf 6 Paladin/Archer/Cleric 248 101660246 2019-10-28
*Azumi* Female Elf 10 Paladin/Archer/Cleric 307 101721119 2019-10-28
*BY* Male Orc 70 Fighter/Warrior/Rogue 10300 100281360 2019-10-28
*Bella* Female Elf 20 Paladin/Archer/Cleric 535 101786017 2019-10-28
*Broly* Female Nightborne 12 Fighter/Warrior/Rogue 333 100127673 2019-10-28
*Buddy* Male Nightborne 70 Paladin/Archer/Cleric 6532 100451138 2019-10-28
*Chivas* Male Dwarf 23 Fighter/Warrior/Rogue 552 101724356 2019-10-28
*DaReX* Male Elf 5 Paladin/Archer/Cleric 244 100146930 2019-10-28
*Dark* Female Nightborne 12 Paladin/Archer/Cleric 318 101765570 2019-10-28
*DarkMiss* Female Nightborne 11 Fighter/Warrior/Rogue 340 101790793 2019-10-28
*Destroyer* Male Dwarf 23 Fighter/Warrior/Rogue 676 101914415 2019-10-29
*Dior* Female Human 70 Paladin/Archer/Cleric 5364 100347856 2019-10-28
*Djani* Male Human 21 Fighter/Warrior/Rogue 486 101773961 2019-10-28
*ElfenLieD Female Elf 8 Paladin/Archer/Cleric 271 101543373 2019-10-28
*EthanHunt Male Orc 11 Paladin/Archer/Cleric 318 100144836 2019-10-28
*Gg*Hajer Female Nightborne 6 Fighter/Warrior/Rogue 251 101770801 2019-10-28
*GoRa* Male Nightborne 59 Mage/Wizard/Dark Sage 2922 100435308 2019-10-28
*Grim Male Elf 11 Fighter/Warrior/Rogue 319 100144836 2019-10-28
*HAYABUZA* Male Human 19 Fighter/Warrior/Rogue 555 101752347 2019-10-28
*HELL* Female Elf 20 Mage/Wizard/Dark Sage 651 101647853 2019-10-28